createdAt,value
2018-08-04T00:00:19.914Z,13.37
2018-08-04T00:02:51.707Z,12.47
2018-08-04T00:05:19.584Z,13.10
2018-08-04T00:07:47.553Z,12.67
2018-08-04T00:10:19.321Z,12.80
2018-08-04T00:12:49.296Z,12.77
2018-08-04T00:15:17.278Z,12.67
2018-08-04T00:17:45.502Z,12.60
2018-08-04T00:20:13.638Z,12.93
2018-08-04T00:22:46.602Z,12.97
2018-08-04T00:25:14.200Z,12.87
2018-08-04T00:27:42.068Z,13.43
2018-08-04T00:30:12.475Z,14.23
2018-08-04T00:32:40.759Z,13.23
2018-08-04T00:35:09.307Z,13.67
2018-08-04T00:37:37.349Z,13.70
2018-08-04T00:40:06.599Z,13.53
2018-08-04T00:42:34.406Z,13.20
2018-08-04T00:45:02.370Z,12.93
2018-08-04T00:47:30.300Z,14.17
2018-08-04T00:49:58.088Z,13.70
2018-08-04T00:52:25.758Z,12.93
2018-08-04T00:54:53.547Z,13.90
2018-08-04T00:57:21.516Z,13.47
2018-08-04T00:59:49.274Z,14.47
2018-08-04T01:02:17.053Z,13.57
2018-08-04T01:04:44.883Z,13.80
2018-08-04T01:07:12.623Z,14.33
2018-08-04T01:09:40.472Z,14.20
2018-08-04T01:12:08.331Z,14.40
2018-08-04T01:14:36.267Z,14.00
2018-08-04T01:17:04.190Z,15.03
2018-08-04T01:19:33.057Z,14.20
2018-08-04T01:22:00.878Z,13.87
2018-08-04T01:24:28.729Z,14.07
2018-08-04T01:26:56.621Z,13.80
2018-08-04T01:29:24.520Z,14.43
2018-08-04T01:31:52.355Z,13.90
2018-08-04T01:34:20.289Z,14.00
2018-08-04T01:36:48.200Z,15.00
2018-08-04T01:39:16.081Z,14.20
2018-08-04T01:41:44.051Z,14.27
2018-08-04T01:44:11.813Z,14.43
2018-08-04T01:46:39.614Z,15.10
2018-08-04T01:49:07.515Z,13.93
2018-08-04T01:51:35.399Z,15.37
2018-08-04T01:54:03.355Z,14.80
2018-08-04T01:56:31.259Z,14.90
2018-08-04T01:58:59.268Z,14.07
2018-08-04T02:01:26.997Z,14.13
2018-08-04T02:03:54.771Z,14.97
2018-08-04T02:06:22.722Z,14.10
2018-08-04T02:08:50.611Z,14.00
2018-08-04T02:11:18.384Z,14.73
2018-08-04T02:13:46.267Z,14.47
2018-08-04T02:16:14.192Z,14.13
2018-08-04T02:18:42.086Z,14.83
2018-08-04T02:21:09.992Z,15.00
2018-08-04T02:23:37.796Z,13.73
2018-08-04T02:26:05.707Z,15.07
2018-08-04T02:28:33.693Z,14.30
2018-08-04T02:31:01.640Z,15.47
2018-08-04T02:33:29.396Z,14.90
2018-08-04T02:35:57.190Z,14.93
2018-08-04T02:38:25.206Z,14.70
2018-08-04T02:40:53.026Z,15.40
2018-08-04T02:43:20.860Z,14.70
2018-08-04T02:45:48.876Z,14.90
2018-08-04T02:48:16.736Z,15.00
2018-08-04T02:50:44.687Z,15.10
2018-08-04T02:53:12.535Z,15.13
2018-08-04T02:55:40.340Z,15.10
2018-08-04T02:58:08.238Z,15.00
2018-08-04T03:00:37.503Z,14.97
2018-08-04T03:03:05.681Z,15.00
2018-08-04T03:05:33.513Z,15.50
2018-08-04T03:08:01.392Z,15.93
2018-08-04T03:10:29.213Z,15.90
2018-08-04T03:12:57.201Z,15.33
2018-08-04T03:15:25.070Z,15.43
2018-08-04T03:17:52.859Z,16.20
2018-08-04T03:20:20.706Z,15.13
2018-08-04T03:22:48.578Z,15.57
2018-08-04T03:25:16.283Z,15.87
2018-08-04T03:27:44.083Z,16.20
2018-08-04T03:30:11.910Z,16.03
2018-08-04T03:32:56.459Z,14.73
2018-08-04T03:35:24.256Z,14.50
2018-08-04T03:37:52.080Z,16.00
2018-08-04T03:40:19.840Z,16.17
2018-08-04T03:42:47.775Z,15.70
2018-08-04T03:45:15.507Z,16.57
2018-08-04T03:50:36.831Z,16.70
2018-08-04T03:53:04.696Z,16.27
2018-08-04T03:55:32.516Z,15.33
2018-08-04T03:58:00.309Z,16.70
2018-08-04T04:00:28.213Z,16.53
2018-08-04T04:02:56.010Z,16.93
2018-08-04T04:05:23.757Z,17.13
2018-08-04T04:07:51.650Z,17.30
2018-08-04T04:10:19.389Z,16.90
2018-08-04T04:12:47.231Z,16.40
2018-08-04T04:15:14.906Z,16.40
2018-08-04T04:17:46.408Z,16.27
2018-08-04T04:20:14.899Z,17.03
2018-08-04T04:22:42.719Z,16.77
2018-08-04T04:25:10.418Z,16.53
2018-08-04T04:27:38.350Z,17.17
2018-08-04T04:30:06.243Z,16.73
2018-08-04T04:32:34.083Z,16.83
2018-08-04T04:35:01.934Z,16.67
2018-08-04T04:37:29.825Z,17.63
2018-08-04T04:39:57.775Z,16.97
2018-08-04T04:42:25.652Z,17.33
2018-08-04T04:44:53.729Z,18.00
2018-08-04T04:47:21.602Z,17.17
2018-08-04T04:49:49.455Z,17.53
2018-08-04T04:52:17.231Z,17.53
2018-08-04T04:54:45.206Z,17.03
2018-08-04T04:57:13.082Z,16.97
2018-08-04T04:59:40.959Z,16.60
2018-08-04T05:02:08.976Z,16.30
2018-08-04T05:04:36.810Z,17.60
2018-08-04T05:07:04.515Z,16.43
2018-08-04T05:09:32.449Z,17.13
2018-08-04T05:12:00.544Z,17.03
2018-08-04T05:14:28.387Z,17.33
2018-08-04T05:17:06.054Z,17.30
2018-08-04T05:19:34.182Z,17.37
2018-08-04T05:22:02.162Z,16.97
2018-08-04T05:24:29.859Z,16.20
2018-08-04T05:26:57.603Z,17.47
2018-08-04T05:29:25.489Z,16.77
2018-08-04T05:31:53.440Z,17.00
2018-08-04T05:34:21.124Z,15.87
2018-08-04T05:36:48.989Z,17.07
2018-08-04T05:39:16.812Z,16.53
2018-08-04T05:41:44.771Z,16.00
2018-08-04T05:44:12.663Z,15.50
2018-08-04T05:46:40.524Z,15.63
2018-08-04T05:49:08.540Z,17.77
2018-08-04T05:51:36.390Z,17.23
2018-08-04T05:54:05.413Z,17.60
2018-08-04T05:56:33.515Z,16.93
2018-08-04T05:59:01.350Z,16.90
2018-08-04T06:01:29.167Z,16.67
2018-08-04T06:04:04.144Z,17.80
2018-08-04T06:06:31.862Z,17.63
2018-08-04T06:08:59.770Z,18.17
2018-08-04T06:11:27.561Z,19.43
2018-08-04T06:16:49.288Z,17.60
2018-08-04T06:19:17.144Z,15.93
2018-08-04T06:21:45.061Z,16.40
2018-08-04T06:24:18.696Z,15.53
2018-08-04T06:26:46.519Z,16.00
2018-08-04T06:29:14.296Z,13.60
2018-08-04T06:31:42.062Z,14.10
2018-08-04T06:34:09.984Z,14.50
2018-08-04T06:36:37.885Z,14.57
2018-08-04T06:39:06.740Z,14.83
2018-08-04T06:41:34.549Z,15.90
2018-08-04T06:44:02.506Z,16.63
2018-08-04T06:46:30.922Z,15.70
2018-08-04T06:48:58.758Z,15.13
2018-08-04T06:51:26.827Z,16.27
2018-08-04T06:53:54.825Z,15.63
2018-08-04T06:56:22.736Z,15.80
2018-08-04T06:58:50.533Z,15.63
2018-08-04T07:01:18.379Z,16.57
2018-08-04T07:03:46.191Z,16.40
2018-08-04T07:06:14.041Z,16.60
2018-08-04T07:08:41.904Z,15.37
2018-08-04T07:11:09.790Z,14.23
2018-08-04T07:13:38.151Z,14.33
2018-08-04T07:16:06.083Z,13.93
2018-08-04T07:18:35.210Z,12.13
2018-08-04T07:21:03.400Z,11.27
2018-08-04T07:23:31.383Z,10.70
2018-08-04T07:25:59.228Z,10.10
2018-08-04T07:28:27.043Z,10.37
2018-08-04T07:30:54.786Z,9.87
2018-08-04T07:33:22.697Z,10.10
2018-08-04T07:35:50.508Z,9.67
2018-08-04T07:38:18.333Z,10.27
2018-08-04T07:40:46.293Z,9.20
2018-08-04T07:43:14.120Z,9.53
2018-08-04T07:45:42.036Z,10.33
2018-08-04T07:48:09.891Z,9.87
2018-08-04T07:50:38.441Z,10.30
2018-08-04T07:53:06.880Z,10.73
2018-08-04T07:55:34.701Z,10.13
2018-08-04T07:58:02.591Z,10.50
2018-08-04T08:00:30.499Z,10.90
2018-08-04T08:02:58.342Z,10.90
2018-08-04T08:05:26.138Z,10.80
2018-08-04T08:07:53.918Z,11.80
2018-08-04T08:10:21.914Z,11.40
2018-08-04T08:12:50.045Z,11.20
2018-08-04T08:15:17.952Z,12.23
2018-08-04T08:17:45.787Z,12.77
2018-08-04T08:20:13.664Z,11.17
2018-08-04T08:22:42.785Z,11.97
2018-08-04T08:25:10.856Z,11.80
2018-08-04T08:27:39.371Z,10.90
2018-08-04T08:30:12.598Z,11.93
2018-08-04T08:32:40.809Z,11.53
2018-08-04T08:35:09.294Z,10.80
2018-08-04T08:37:37.221Z,12.20
2018-08-04T08:40:05.077Z,11.03
2018-08-04T08:42:33.056Z,11.27
2018-08-04T08:45:01.143Z,10.63
2018-08-04T08:47:28.977Z,11.43
2018-08-04T08:49:56.827Z,11.50
2018-08-04T08:52:24.629Z,11.43
2018-08-04T08:54:52.405Z,11.37
2018-08-04T08:57:20.175Z,12.23
2018-08-04T08:59:47.943Z,11.63
2018-08-04T09:02:15.790Z,11.43
2018-08-04T09:04:43.651Z,11.27
2018-08-04T09:07:11.480Z,11.80
2018-08-04T09:09:39.294Z,11.77
2018-08-04T09:12:07.197Z,11.73
2018-08-04T09:14:35.238Z,11.20
2018-08-04T09:17:03.043Z,10.87
2018-08-04T09:19:31.133Z,10.87
2018-08-04T09:21:58.906Z,10.80
2018-08-04T09:24:26.939Z,10.00
2018-08-04T09:26:54.533Z,10.80
2018-08-04T09:29:32.265Z,9.83
2018-08-04T09:32:01.152Z,9.37
2018-08-04T09:34:28.866Z,9.10
2018-08-04T09:36:56.751Z,8.87
2018-08-04T09:39:26.539Z,8.93
2018-08-04T09:41:56.384Z,9.13
2018-08-04T09:44:24.136Z,9.03
2018-08-04T09:46:52.448Z,8.70
2018-08-04T09:49:23.627Z,8.43
2018-08-04T09:51:57.164Z,8.70
2018-08-04T09:54:25.047Z,8.10
2018-08-04T09:56:52.966Z,8.00
2018-08-04T09:59:20.835Z,8.70
2018-08-04T10:01:54.242Z,9.20
2018-08-04T10:04:22.380Z,8.30
2018-08-04T10:06:50.238Z,6.83
2018-08-04T10:09:28.328Z,7.60
2018-08-04T10:11:56.107Z,7.50
2018-08-04T10:14:26.061Z,7.30
2018-08-04T10:16:56.643Z,7.13
2018-08-04T10:19:25.689Z,7.33
2018-08-04T10:21:53.737Z,7.50
2018-08-04T10:24:22.061Z,6.83
2018-08-04T10:26:50.046Z,9.47
2018-08-04T10:29:18.030Z,7.57
2018-08-04T10:31:46.334Z,7.27
2018-08-04T10:34:14.317Z,7.33
2018-08-04T10:36:42.732Z,7.60
2018-08-04T10:39:11.960Z,7.63
2018-08-04T10:41:40.031Z,7.77
2018-08-04T10:44:09.436Z,7.67
2018-08-04T10:46:37.818Z,8.67
2018-08-04T10:49:06.428Z,7.97
2018-08-04T10:51:35.001Z,7.57
2018-08-04T10:54:03.296Z,7.60
2018-08-04T10:56:31.450Z,8.33
2018-08-04T10:58:59.419Z,8.20
2018-08-04T11:01:27.411Z,8.60
2018-08-04T11:03:55.398Z,8.40
2018-08-04T11:06:23.182Z,8.00
2018-08-04T11:08:51.130Z,8.00
2018-08-04T11:11:18.820Z,7.50
2018-08-04T11:13:46.507Z,8.53
2018-08-04T11:16:14.467Z,7.87
2018-08-04T11:18:42.356Z,7.90
2018-08-04T11:21:10.499Z,8.23
2018-08-04T11:23:38.677Z,7.83
2018-08-04T11:26:07.023Z,7.93
2018-08-04T11:28:35.819Z,7.60
2018-08-04T11:31:04.230Z,7.53
2018-08-04T11:33:32.182Z,8.20
2018-08-04T11:36:00.073Z,8.33
2018-08-04T11:38:27.858Z,7.87
2018-08-04T11:40:55.728Z,8.90
2018-08-04T11:43:23.622Z,8.20
2018-08-04T11:45:51.521Z,7.87
2018-08-04T11:48:19.471Z,8.48
2018-08-04T11:50:47.409Z,8.00
2018-08-04T11:53:15.475Z,7.83
2018-08-04T11:55:43.388Z,7.60
2018-08-04T11:58:11.207Z,7.80
2018-08-04T12:00:39.347Z,7.72
2018-08-04T12:03:07.894Z,7.60
2018-08-04T12:05:36.412Z,7.95
2018-08-04T12:08:05.408Z,8.17
2018-08-04T12:10:33.527Z,8.07
2018-08-04T12:13:01.606Z,8.20
2018-08-04T12:15:29.690Z,7.90
2018-08-04T12:17:57.690Z,7.90
2018-08-04T12:20:25.968Z,8.27
2018-08-04T12:22:53.920Z,8.17
2018-08-04T12:25:21.863Z,7.97
2018-08-04T12:27:49.899Z,7.50
2018-08-04T12:30:17.895Z,7.77
2018-08-04T12:32:45.754Z,8.15
2018-08-04T12:35:13.851Z,8.50
2018-08-04T12:37:41.860Z,8.50
2018-08-04T12:40:10.358Z,8.23
2018-08-04T12:42:38.425Z,7.58
2018-08-04T12:45:07.581Z,7.58
2018-08-04T12:47:36.568Z,7.78
2018-08-04T12:50:05.636Z,7.90
2018-08-04T12:52:33.710Z,7.87
2018-08-04T12:55:01.880Z,7.85
2018-08-04T12:57:29.890Z,7.33
2018-08-04T12:59:58.079Z,8.00
2018-08-04T13:02:26.000Z,7.80
2018-08-04T13:04:54.127Z,8.65
2018-08-04T13:07:22.011Z,7.75
2018-08-04T13:09:50.046Z,7.85
2018-08-04T13:12:18.005Z,7.67
2018-08-04T13:14:45.819Z,7.70
2018-08-04T13:17:13.824Z,7.90
2018-08-04T13:19:41.760Z,8.23
2018-08-04T13:22:09.866Z,8.00
2018-08-04T13:24:38.281Z,7.75
2018-08-04T13:27:07.334Z,8.38
2018-08-04T13:29:36.065Z,8.15
2018-08-04T13:32:04.871Z,8.15
2018-08-04T13:34:33.340Z,8.30
2018-08-04T13:37:01.263Z,7.97
2018-08-04T13:39:29.286Z,7.97
2018-08-04T13:41:57.151Z,9.28
2018-08-04T13:44:25.212Z,8.73
2018-08-04T13:46:53.314Z,8.67
2018-08-04T13:49:21.219Z,9.20
2018-08-04T13:51:49.228Z,8.60
2018-08-04T13:54:17.150Z,8.63
2018-08-04T13:56:45.371Z,8.37
2018-08-04T13:59:13.266Z,8.87
2018-08-04T14:01:41.303Z,8.83
2018-08-04T14:04:09.332Z,9.13
2018-08-04T14:06:37.761Z,8.78
2018-08-04T14:09:08.075Z,9.03
2018-08-04T14:11:36.410Z,8.97
2018-08-04T14:14:05.078Z,9.07
2018-08-04T14:16:33.210Z,9.30
2018-08-04T14:19:01.062Z,9.18
2018-08-04T14:21:29.475Z,9.37
2018-08-04T14:23:57.668Z,9.23
2018-08-04T14:26:25.639Z,8.60
2018-08-04T14:28:53.500Z,8.73
2018-08-04T14:31:21.379Z,9.15
2018-08-04T14:33:49.629Z,8.63
2018-08-04T14:36:17.482Z,9.37
2018-08-04T14:38:45.462Z,9.40
2018-08-04T14:41:14.594Z,9.33
2018-08-04T14:43:42.468Z,9.40
2018-08-04T14:46:10.692Z,9.40
2018-08-04T14:48:38.777Z,9.33
2018-08-04T14:51:07.251Z,9.40
2018-08-04T14:53:35.799Z,8.88
2018-08-04T14:56:04.401Z,8.63
2018-08-04T14:58:36.810Z,9.08
2018-08-04T15:01:05.183Z,8.97
2018-08-04T15:03:33.368Z,8.97
2018-08-04T15:06:01.410Z,8.53
2018-08-04T15:08:30.025Z,8.73
2018-08-04T15:10:57.958Z,8.70
2018-08-04T15:13:25.934Z,8.37
2018-08-04T15:15:53.872Z,8.77
2018-08-04T15:18:22.058Z,8.90
2018-08-04T15:20:50.071Z,8.40
2018-08-04T15:23:17.932Z,9.00
2018-08-04T15:25:45.801Z,8.93
2018-08-04T15:28:13.702Z,8.83
2018-08-04T15:30:41.638Z,9.33
2018-08-04T15:33:09.455Z,9.30
2018-08-04T15:35:37.692Z,8.83
2018-08-04T15:38:05.957Z,9.27
2018-08-04T15:40:34.203Z,9.00
2018-08-04T15:43:02.236Z,9.37
2018-08-04T15:45:30.161Z,9.30
2018-08-04T15:47:57.981Z,9.10
2018-08-04T15:50:31.705Z,9.07
2018-08-04T15:52:59.708Z,8.73
2018-08-04T15:55:27.592Z,8.43
2018-08-04T15:57:55.441Z,8.47
2018-08-04T16:00:23.112Z,8.60
2018-08-04T16:02:51.158Z,8.60
2018-08-04T16:05:20.520Z,8.97
2018-08-04T16:07:48.421Z,8.40
2018-08-04T16:10:23.798Z,8.73
2018-08-04T16:12:51.620Z,8.40
2018-08-04T16:15:19.447Z,8.17
2018-08-04T16:17:51.072Z,8.20
2018-08-04T16:20:18.913Z,8.87
2018-08-04T16:22:46.869Z,8.70
2018-08-04T16:25:15.024Z,8.30
2018-08-04T16:27:42.972Z,8.17
2018-08-04T16:30:11.228Z,8.43
2018-08-04T16:32:39.810Z,8.10
2018-08-04T16:35:08.467Z,8.00
2018-08-04T16:37:36.402Z,8.53
2018-08-04T16:40:05.068Z,8.20
2018-08-04T16:42:33.273Z,7.93
2018-08-04T16:45:01.748Z,9.10
2018-08-04T16:47:29.580Z,8.50
2018-08-04T16:49:57.391Z,8.13
2018-08-04T16:52:25.195Z,8.57
2018-08-04T16:54:54.197Z,8.33
2018-08-04T16:57:22.039Z,8.27
2018-08-04T16:59:50.931Z,8.17
2018-08-04T17:02:18.823Z,8.00
2018-08-04T17:04:46.751Z,7.77
2018-08-04T17:07:14.684Z,8.73
2018-08-04T17:09:42.495Z,8.63
2018-08-04T17:12:10.396Z,8.20
2018-08-04T17:14:38.148Z,8.47
2018-08-04T17:17:06.077Z,8.10
2018-08-04T17:19:34.003Z,7.93
2018-08-04T17:22:01.777Z,8.17
2018-08-04T17:24:29.591Z,7.63
2018-08-04T17:26:57.397Z,7.77
2018-08-04T17:29:25.257Z,7.40
2018-08-04T17:31:53.107Z,7.93
2018-08-04T17:34:24.037Z,7.87
2018-08-04T17:36:51.917Z,8.17
2018-08-04T17:39:19.987Z,8.27
2018-08-04T17:41:47.847Z,8.43
2018-08-04T17:44:15.643Z,8.67
2018-08-04T17:46:43.613Z,8.77
2018-08-04T17:49:11.448Z,8.07
2018-08-04T17:51:39.390Z,8.43
2018-08-04T17:54:07.241Z,8.10
2018-08-04T17:56:35.026Z,7.70
2018-08-04T17:59:02.922Z,7.60
2018-08-04T18:01:31.715Z,7.20
2018-08-04T18:03:59.816Z,8.53
2018-08-04T18:06:27.608Z,7.57
2018-08-04T18:08:55.702Z,7.80
2018-08-04T18:11:23.656Z,7.63
2018-08-04T18:13:52.743Z,7.60
2018-08-04T18:16:20.512Z,7.93
2018-08-04T18:18:48.651Z,7.90
2018-08-04T18:21:16.547Z,7.73
2018-08-04T18:23:44.402Z,7.87
2018-08-04T18:26:12.390Z,9.03
2018-08-04T18:28:40.854Z,8.13
2018-08-04T18:31:09.072Z,7.47
2018-08-04T18:33:37.627Z,7.93
2018-08-04T18:36:06.346Z,8.00
2018-08-04T18:38:34.820Z,8.30
2018-08-04T18:41:03.640Z,8.40
2018-08-04T18:43:32.704Z,9.00
2018-08-04T18:46:00.809Z,7.93
2018-08-04T18:48:29.028Z,7.93
2018-08-04T18:50:57.105Z,8.40
2018-08-04T18:53:25.234Z,8.43
2018-08-04T18:55:53.518Z,9.03
2018-08-04T18:58:21.474Z,8.53
2018-08-04T19:00:49.724Z,7.63
2018-08-04T19:03:17.765Z,7.70
2018-08-04T19:05:45.861Z,7.77
2018-08-04T19:08:13.921Z,8.63
2018-08-04T19:10:42.156Z,9.30
2018-08-04T19:13:10.714Z,9.33
2018-08-04T19:15:39.048Z,8.87
2018-08-04T19:18:07.347Z,9.40
2018-08-04T19:20:35.862Z,9.47
2018-08-04T19:23:06.655Z,9.17
2018-08-04T19:25:35.589Z,9.27
2018-08-04T19:28:04.692Z,8.87
2018-08-04T19:30:34.403Z,10.17
2018-08-04T19:33:02.522Z,9.17
2018-08-04T19:35:36.522Z,8.83
2018-08-04T19:38:05.624Z,9.33
2018-08-04T19:40:34.781Z,9.93
2018-08-04T19:43:02.741Z,9.17
2018-08-04T19:45:31.016Z,9.60
2018-08-04T19:47:58.995Z,10.20
2018-08-04T19:50:27.207Z,9.67
2018-08-04T19:52:55.104Z,9.00
2018-08-04T19:55:23.158Z,9.70
2018-08-04T19:57:51.095Z,10.23
2018-08-04T20:00:19.101Z,10.40
2018-08-04T20:02:46.994Z,10.20
2018-08-04T20:05:15.100Z,9.50
2018-08-04T20:07:42.960Z,9.30
2018-08-04T20:10:10.969Z,9.47
2018-08-04T20:12:53.051Z,9.47
2018-08-04T20:15:23.537Z,9.37
2018-08-04T20:17:51.517Z,10.37
2018-08-04T20:20:19.591Z,10.20
2018-08-04T20:22:47.540Z,9.83
2018-08-04T20:25:15.679Z,10.90
2018-08-04T20:27:43.664Z,9.87
2018-08-04T20:30:11.713Z,9.83
2018-08-04T20:32:39.837Z,9.43
2018-08-04T20:35:08.239Z,10.23
2018-08-04T20:37:36.507Z,10.23
2018-08-04T20:40:05.496Z,9.33
2018-08-04T20:42:35.936Z,9.40
2018-08-04T20:45:05.250Z,9.53
2018-08-04T20:47:34.049Z,9.53
2018-08-04T20:50:02.079Z,10.07
2018-08-04T20:52:29.915Z,9.80
2018-08-04T20:54:57.692Z,10.40
2018-08-04T20:57:25.640Z,9.70
2018-08-04T20:59:53.564Z,10.30
2018-08-04T21:02:21.544Z,11.40
2018-08-04T21:04:50.717Z,9.87
2018-08-04T21:07:18.752Z,10.40
2018-08-04T21:09:46.911Z,10.90
2018-08-04T21:12:14.866Z,10.33
2018-08-04T21:14:43.285Z,10.23
2018-08-04T21:17:11.539Z,10.10
2018-08-04T21:19:39.519Z,10.87
2018-08-04T21:22:08.097Z,10.53
2018-08-04T21:24:36.515Z,10.50
2018-08-04T21:27:06.287Z,9.97
2018-08-04T21:29:34.601Z,11.47
2018-08-04T21:32:02.739Z,10.23
2018-08-04T21:34:30.808Z,9.73
2018-08-04T21:36:58.813Z,10.90
2018-08-04T21:39:28.725Z,10.63
2018-08-04T21:41:56.693Z,10.90
2018-08-04T21:44:25.094Z,9.00
2018-08-04T21:46:53.143Z,7.93
2018-08-04T21:49:23.281Z,7.93
2018-08-04T21:51:59.983Z,8.03
2018-08-04T21:54:33.060Z,7.90
2018-08-04T21:57:02.162Z,8.00
2018-08-04T21:59:30.146Z,7.87
2018-08-04T22:01:58.300Z,8.03
2018-08-04T22:04:26.787Z,7.57
2018-08-04T22:07:38.204Z,7.20
2018-08-04T22:10:06.631Z,7.37
2018-08-04T22:12:36.655Z,7.00
2018-08-04T22:15:06.904Z,6.77
2018-08-04T22:17:35.943Z,6.90
2018-08-04T22:20:08.978Z,6.83
2018-08-04T22:22:37.544Z,6.80
2018-08-04T22:25:09.618Z,7.37
2018-08-04T22:27:38.918Z,7.50
2018-08-04T22:30:12.779Z,7.50
2018-08-04T22:32:43.362Z,7.83
2018-08-04T22:35:12.305Z,7.47
2018-08-04T22:37:41.284Z,7.83
2018-08-04T22:40:10.077Z,7.50
2018-08-04T22:42:38.606Z,7.80
2018-08-04T22:46:31.030Z,8.17
2018-08-04T22:48:59.006Z,9.43
2018-08-04T22:51:28.197Z,9.13
2018-08-04T22:53:56.451Z,8.23
2018-08-04T22:56:24.656Z,7.90
2018-08-04T22:58:52.565Z,8.07
2018-08-04T23:01:20.579Z,8.43
2018-08-04T23:03:48.502Z,9.03
2018-08-04T23:06:16.582Z,8.67
2018-08-04T23:08:44.610Z,8.67
2018-08-04T23:11:12.472Z,8.03
2018-08-04T23:13:40.435Z,8.60
2018-08-04T23:16:08.450Z,8.03
2018-08-04T23:18:36.660Z,9.20
2018-08-04T23:21:05.049Z,10.80
2018-08-04T23:23:33.142Z,10.05
2018-08-04T23:26:01.131Z,10.20
2018-08-04T23:28:29.150Z,10.47
2018-08-04T23:30:57.091Z,10.80
2018-08-04T23:33:25.045Z,11.27
2018-08-04T23:35:59.358Z,10.40
2018-08-04T23:38:27.330Z,10.50
2018-08-04T23:40:55.361Z,10.33
2018-08-04T23:43:23.432Z,11.43
2018-08-04T23:45:51.354Z,10.63
2018-08-04T23:48:19.227Z,10.80
2018-08-04T23:50:47.277Z,10.77
2018-08-04T23:53:15.138Z,11.47
2018-08-04T23:55:43.007Z,10.03
2018-08-04T23:58:11.025Z,10.80
